sensor_id;sensor_type;location;lat;lon;timestamp;P1;durP1;ratioP1;P2;durP2;ratioP2
62832;SDS011;48891;49.220;6.920;2022-12-18T00:00:24;10.60;;;6.85;;
62832;SDS011;48891;49.220;6.920;2022-12-18T00:02:49;10.20;;;6.68;;
62832;SDS011;48891;49.220;6.920;2022-12-18T00:05:14;9.77;;;6.68;;
62832;SDS011;48891;49.220;6.920;2022-12-18T00:07:39;10.27;;;7.03;;
62832;SDS011;48891;49.220;6.920;2022-12-18T00:10:04;10.90;;;7.00;;
62832;SDS011;48891;49.220;6.920;2022-12-18T00:12:30;12.13;;;7.07;;
62832;SDS011;48891;49.220;6.920;2022-12-18T00:14:55;10.52;;;7.03;;
62832;SDS011;48891;49.220;6.920;2022-12-18T00:17:20;11.50;;;6.85;;
62832;SDS011;48891;49.220;6.920;2022-12-18T00:19:45;9.60;;;6.70;;
62832;SDS011;48891;49.220;6.920;2022-12-18T00:22:10;11.43;;;7.00;;
62832;SDS011;48891;49.220;6.920;2022-12-18T00:24:35;11.25;;;6.80;;
62832;SDS011;48891;49.220;6.920;2022-12-18T00:27:00;8.77;;;5.97;;
62832;SDS011;48891;49.220;6.920;2022-12-18T00:29:25;9.93;;;6.82;;
62832;SDS011;48891;49.220;6.920;2022-12-18T00:31:51;10.00;;;6.75;;
62832;SDS011;48891;49.220;6.920;2022-12-18T00:34:16;10.52;;;6.45;;
62832;SDS011;48891;49.220;6.920;2022-12-18T00:36:41;10.03;;;6.47;;
62832;SDS011;48891;49.220;6.920;2022-12-18T00:39:06;9.80;;;6.40;;
62832;SDS011;48891;49.220;6.920;2022-12-18T00:41:31;11.02;;;6.50;;
62832;SDS011;48891;49.220;6.920;2022-12-18T00:43:57;10.13;;;6.82;;
62832;SDS011;48891;49.220;6.920;2022-12-18T00:46:22;8.33;;;5.87;;
62832;SDS011;48891;49.220;6.920;2022-12-18T00:48:47;9.32;;;6.35;;
62832;SDS011;48891;49.220;6.920;2022-12-18T00:51:12;10.63;;;6.90;;
62832;SDS011;48891;49.220;6.920;2022-12-18T00:53:37;8.98;;;6.65;;
62832;SDS011;48891;49.220;6.920;2022-12-18T00:56:02;9.18;;;6.53;;
62832;SDS011;48891;49.220;6.920;2022-12-18T00:58:27;11.53;;;6.80;;
62832;SDS011;48891;49.220;6.920;2022-12-18T01:00:52;11.05;;;7.53;;
62832;SDS011;48891;49.220;6.920;2022-12-18T01:03:17;10.68;;;6.40;;
62832;SDS011;48891;49.220;6.920;2022-12-18T01:05:43;11.00;;;6.88;;
62832;SDS011;48891;49.220;6.920;2022-12-18T01:08:08;10.10;;;6.60;;
62832;SDS011;48891;49.220;6.920;2022-12-18T01:10:33;10.23;;;6.75;;
62832;SDS011;48891;49.220;6.920;2022-12-18T01:12:58;10.00;;;6.63;;
62832;SDS011;48891;49.220;6.920;2022-12-18T01:15:23;11.27;;;6.75;;
62832;SDS011;48891;49.220;6.920;2022-12-18T01:17:49;9.85;;;6.88;;
62832;SDS011;48891;49.220;6.920;2022-12-18T01:20:16;9.77;;;6.53;;
62832;SDS011;48891;49.220;6.920;2022-12-18T01:22:41;9.88;;;6.13;;
62832;SDS011;48891;49.220;6.920;2022-12-18T01:25:06;10.90;;;6.67;;
62832;SDS011;48891;49.220;6.920;2022-12-18T01:27:33;11.02;;;7.20;;
62832;SDS011;48891;49.220;6.920;2022-12-18T01:29:58;11.40;;;6.80;;
62832;SDS011;48891;49.220;6.920;2022-12-18T01:32:23;9.95;;;6.82;;
62832;SDS011;48891;49.220;6.920;2022-12-18T01:34:48;8.90;;;6.70;;
62832;SDS011;48891;49.220;6.920;2022-12-18T01:37:13;11.05;;;6.95;;
62832;SDS011;48891;49.220;6.920;2022-12-18T01:39:38;10.45;;;6.65;;
62832;SDS011;48891;49.220;6.920;2022-12-18T01:42:05;10.40;;;7.18;;
62832;SDS011;48891;49.220;6.920;2022-12-18T01:47:22;10.88;;;6.82;;
62832;SDS011;48891;49.220;6.920;2022-12-18T01:49:48;11.73;;;7.00;;
62832;SDS011;48891;49.220;6.920;2022-12-18T01:52:13;10.65;;;6.55;;
62832;SDS011;48891;49.220;6.920;2022-12-18T01:54:39;11.50;;;6.78;;
62832;SDS011;48891;49.220;6.920;2022-12-18T01:57:04;9.75;;;6.53;;
62832;SDS011;48891;49.220;6.920;2022-12-18T01:59:29;10.77;;;6.65;;
62832;SDS011;48891;49.220;6.920;2022-12-18T02:01:56;11.23;;;6.90;;
62832;SDS011;48891;49.220;6.920;2022-12-18T02:04:22;8.70;;;6.00;;
62832;SDS011;48891;49.220;6.920;2022-12-18T02:06:47;9.50;;;6.93;;
62832;SDS011;48891;49.220;6.920;2022-12-18T02:09:14;10.93;;;6.68;;
62832;SDS011;48891;49.220;6.920;2022-12-18T02:14:28;9.07;;;5.85;;
62832;SDS011;48891;49.220;6.920;2022-12-18T02:17:01;10.90;;;6.55;;
62832;SDS011;48891;49.220;6.920;2022-12-18T02:22:26;11.02;;;6.55;;
62832;SDS011;48891;49.220;6.920;2022-12-18T02:27:33;11.35;;;6.65;;
62832;SDS011;48891;49.220;6.920;2022-12-18T02:29:59;8.40;;;6.13;;
62832;SDS011;48891;49.220;6.920;2022-12-18T02:32:25;10.57;;;6.72;;
62832;SDS011;48891;49.220;6.920;2022-12-18T02:34:51;11.25;;;6.65;;
62832;SDS011;48891;49.220;6.920;2022-12-18T02:37:18;9.20;;;6.72;;
62832;SDS011;48891;49.220;6.920;2022-12-18T02:39:44;10.55;;;6.65;;
62832;SDS011;48891;49.220;6.920;2022-12-18T02:42:10;11.35;;;7.47;;
62832;SDS011;48891;49.220;6.920;2022-12-18T02:44:46;9.98;;;6.50;;
62832;SDS011;48891;49.220;6.920;2022-12-18T02:47:12;10.00;;;6.43;;
62832;SDS011;48891;49.220;6.920;2022-12-18T02:49:57;9.95;;;6.07;;
62832;SDS011;48891;49.220;6.920;2022-12-18T02:52:45;10.25;;;6.25;;
62832;SDS011;48891;49.220;6.920;2022-12-18T02:57:58;10.02;;;6.25;;
62832;SDS011;48891;49.220;6.920;2022-12-18T03:03:06;9.18;;;5.93;;
62832;SDS011;48891;49.220;6.920;2022-12-18T03:05:42;10.27;;;6.80;;
62832;SDS011;48891;49.220;6.920;2022-12-18T03:08:16;9.68;;;6.22;;
62832;SDS011;48891;49.220;6.920;2022-12-18T03:10:45;10.50;;;6.88;;
62832;SDS011;48891;49.220;6.920;2022-12-18T03:13:15;9.85;;;7.10;;
62832;SDS011;48891;49.220;6.920;2022-12-18T03:15:42;10.13;;;6.57;;
62832;SDS011;48891;49.220;6.920;2022-12-18T03:18:13;10.05;;;6.30;;
62832;SDS011;48891;49.220;6.920;2022-12-18T03:20:40;10.00;;;6.60;;
62832;SDS011;48891;49.220;6.920;2022-12-18T03:23:08;11.10;;;6.93;;
62832;SDS011;48891;49.220;6.920;2022-12-18T03:25:34;12.00;;;6.70;;
62832;SDS011;48891;49.220;6.920;2022-12-18T03:28:03;10.00;;;6.70;;
62832;SDS011;48891;49.220;6.920;2022-12-18T03:30:31;9.13;;;6.25;;
62832;SDS011;48891;49.220;6.920;2022-12-18T03:33:00;10.67;;;7.00;;
62832;SDS011;48891;49.220;6.920;2022-12-18T03:37:52;9.45;;;6.18;;
62832;SDS011;48891;49.220;6.920;2022-12-18T03:40:17;10.60;;;6.82;;
62832;SDS011;48891;49.220;6.920;2022-12-18T03:42:51;10.15;;;6.20;;
62832;SDS011;48891;49.220;6.920;2022-12-18T03:45:22;11.25;;;7.07;;
62832;SDS011;48891;49.220;6.920;2022-12-18T03:50:18;10.73;;;6.10;;
62832;SDS011;48891;49.220;6.920;2022-12-18T03:55:10;9.95;;;6.70;;
62832;SDS011;48891;49.220;6.920;2022-12-18T03:57:35;11.02;;;6.90;;
62832;SDS011;48891;49.220;6.920;2022-12-18T04:00:04;10.95;;;7.15;;
62832;SDS011;48891;49.220;6.920;2022-12-18T04:02:30;10.90;;;6.70;;
62832;SDS011;48891;49.220;6.920;2022-12-18T04:04:56;10.05;;;6.70;;
62832;SDS011;48891;49.220;6.920;2022-12-18T04:07:23;9.73;;;6.63;;
62832;SDS011;48891;49.220;6.920;2022-12-18T04:09:48;11.53;;;6.97;;
62832;SDS011;48891;49.220;6.920;2022-12-18T04:12:14;9.98;;;6.43;;
62832;SDS011;48891;49.220;6.920;2022-12-18T04:14:39;10.67;;;6.77;;
62832;SDS011;48891;49.220;6.920;2022-12-18T04:17:04;10.70;;;6.72;;
62832;SDS011;48891;49.220;6.920;2022-12-18T04:19:29;10.13;;;6.55;;
62832;SDS011;48891;49.220;6.920;2022-12-18T04:21:54;10.80;;;6.65;;
62832;SDS011;48891;49.220;6.920;2022-12-18T04:24:20;14.05;;;6.97;;
62832;SDS011;48891;49.220;6.920;2022-12-18T04:26:45;11.35;;;6.80;;
62832;SDS011;48891;49.220;6.920;2022-12-18T04:29:10;12.75;;;7.15;;
62832;SDS011;48891;49.220;6.920;2022-12-18T04:31:35;9.63;;;6.50;;
62832;SDS011;48891;49.220;6.920;2022-12-18T04:34:00;11.50;;;7.38;;
62832;SDS011;48891;49.220;6.920;2022-12-18T04:36:26;12.47;;;7.03;;
62832;SDS011;48891;49.220;6.920;2022-12-18T04:38:51;10.80;;;6.32;;
62832;SDS011;48891;49.220;6.920;2022-12-18T04:41:16;10.45;;;7.07;;
62832;SDS011;48891;49.220;6.920;2022-12-18T04:43:41;9.77;;;6.80;;
62832;SDS011;48891;49.220;6.920;2022-12-18T04:46:06;11.82;;;6.80;;
62832;SDS011;48891;49.220;6.920;2022-12-18T04:48:32;10.07;;;6.63;;
62832;SDS011;48891;49.220;6.920;2022-12-18T04:50:57;11.20;;;6.82;;
62832;SDS011;48891;49.220;6.920;2022-12-18T04:53:22;9.90;;;6.57;;
62832;SDS011;48891;49.220;6.920;2022-12-18T04:55:48;10.50;;;6.82;;
62832;SDS011;48891;49.220;6.920;2022-12-18T04:58:13;11.47;;;6.93;;
62832;SDS011;48891;49.220;6.920;2022-12-18T05:00:38;8.73;;;5.95;;
62832;SDS011;48891;49.220;6.920;2022-12-18T05:03:03;14.15;;;6.38;;
62832;SDS011;48891;49.220;6.920;2022-12-18T05:05:28;9.52;;;6.00;;
62832;SDS011;48891;49.220;6.920;2022-12-18T05:07:53;11.80;;;6.72;;
62832;SDS011;48891;49.220;6.920;2022-12-18T05:10:18;10.57;;;7.03;;
62832;SDS011;48891;49.220;6.920;2022-12-18T05:12:43;10.15;;;6.35;;
62832;SDS011;48891;49.220;6.920;2022-12-18T05:15:08;10.40;;;6.88;;
62832;SDS011;48891;49.220;6.920;2022-12-18T05:17:34;10.77;;;6.67;;
62832;SDS011;48891;49.220;6.920;2022-12-18T05:19:59;9.77;;;6.32;;
62832;SDS011;48891;49.220;6.920;2022-12-18T05:22:24;10.27;;;6.55;;
62832;SDS011;48891;49.220;6.920;2022-12-18T05:24:49;9.68;;;6.45;;
62832;SDS011;48891;49.220;6.920;2022-12-18T05:27:14;9.68;;;6.20;;
62832;SDS011;48891;49.220;6.920;2022-12-18T05:29:39;10.20;;;6.25;;
62832;SDS011;48891;49.220;6.920;2022-12-18T05:32:04;9.48;;;6.10;;
62832;SDS011;48891;49.220;6.920;2022-12-18T05:34:29;10.05;;;6.47;;
62832;SDS011;48891;49.220;6.920;2022-12-18T05:36:55;11.15;;;7.18;;
62832;SDS011;48891;49.220;6.920;2022-12-18T05:39:20;11.70;;;6.97;;
62832;SDS011;48891;49.220;6.920;2022-12-18T05:41:45;10.48;;;6.60;;
62832;SDS011;48891;49.220;6.920;2022-12-18T05:44:10;10.60;;;6.18;;
62832;SDS011;48891;49.220;6.920;2022-12-18T05:46:35;10.57;;;6.35;;
62832;SDS011;48891;49.220;6.920;2022-12-18T05:49:00;10.80;;;6.57;;
62832;SDS011;48891;49.220;6.920;2022-12-18T05:51:26;10.52;;;6.68;;
62832;SDS011;48891;49.220;6.920;2022-12-18T05:53:51;8.93;;;6.18;;
62832;SDS011;48891;49.220;6.920;2022-12-18T05:56:18;10.82;;;6.95;;
62832;SDS011;48891;49.220;6.920;2022-12-18T05:58:44;10.40;;;6.75;;
62832;SDS011;48891;49.220;6.920;2022-12-18T06:01:13;11.77;;;6.57;;
62832;SDS011;48891;49.220;6.920;2022-12-18T06:03:39;10.45;;;6.68;;
62832;SDS011;48891;49.220;6.920;2022-12-18T06:06:04;11.80;;;6.57;;
62832;SDS011;48891;49.220;6.920;2022-12-18T06:08:29;11.07;;;6.90;;
62832;SDS011;48891;49.220;6.920;2022-12-18T06:10:54;10.70;;;6.50;;
62832;SDS011;48891;49.220;6.920;2022-12-18T06:13:19;10.68;;;6.90;;
62832;SDS011;48891;49.220;6.920;2022-12-18T06:15:44;10.27;;;6.33;;
62832;SDS011;48891;49.220;6.920;2022-12-18T06:18:10;10.75;;;6.72;;
62832;SDS011;48891;49.220;6.920;2022-12-18T06:20:35;10.18;;;6.43;;
62832;SDS011;48891;49.220;6.920;2022-12-18T06:23:00;10.23;;;6.38;;
62832;SDS011;48891;49.220;6.920;2022-12-18T06:25:25;10.82;;;6.75;;
62832;SDS011;48891;49.220;6.920;2022-12-18T06:27:50;11.20;;;6.78;;
62832;SDS011;48891;49.220;6.920;2022-12-18T06:30:15;11.43;;;6.32;;
62832;SDS011;48891;49.220;6.920;2022-12-18T06:32:40;10.57;;;6.50;;
62832;SDS011;48891;49.220;6.920;2022-12-18T06:35:06;10.07;;;6.90;;
62832;SDS011;48891;49.220;6.920;2022-12-18T06:37:31;9.88;;;6.90;;
62832;SDS011;48891;49.220;6.920;2022-12-18T06:39:56;9.75;;;6.95;;
62832;SDS011;48891;49.220;6.920;2022-12-18T06:42:21;9.20;;;5.80;;
62832;SDS011;48891;49.220;6.920;2022-12-18T06:44:46;12.33;;;7.20;;
62832;SDS011;48891;49.220;6.920;2022-12-18T06:47:11;11.73;;;6.93;;
62832;SDS011;48891;49.220;6.920;2022-12-18T06:49:37;9.87;;;6.73;;
62832;SDS011;48891;49.220;6.920;2022-12-18T06:52:02;10.10;;;6.35;;
62832;SDS011;48891;49.220;6.920;2022-12-18T06:54:27;10.63;;;6.32;;
62832;SDS011;48891;49.220;6.920;2022-12-18T06:56:52;9.95;;;6.13;;
62832;SDS011;48891;49.220;6.920;2022-12-18T06:59:17;10.90;;;6.82;;
62832;SDS011;48891;49.220;6.920;2022-12-18T07:01:42;9.75;;;6.40;;
62832;SDS011;48891;49.220;6.920;2022-12-18T07:04:07;12.07;;;6.97;;
62832;SDS011;48891;49.220;6.920;2022-12-18T07:06:32;9.52;;;6.28;;
62832;SDS011;48891;49.220;6.920;2022-12-18T07:08:58;12.20;;;7.47;;
62832;SDS011;48891;49.220;6.920;2022-12-18T07:11:23;11.27;;;7.68;;
62832;SDS011;48891;49.220;6.920;2022-12-18T07:13:48;11.05;;;7.18;;
62832;SDS011;48891;49.220;6.920;2022-12-18T07:16:14;10.48;;;6.88;;
62832;SDS011;48891;49.220;6.920;2022-12-18T07:18:40;12.95;;;7.18;;
62832;SDS011;48891;49.220;6.920;2022-12-18T07:21:05;12.43;;;7.43;;
62832;SDS011;48891;49.220;6.920;2022-12-18T07:23:31;12.70;;;7.43;;
62832;SDS011;48891;49.220;6.920;2022-12-18T07:26:00;13.88;;;8.13;;
62832;SDS011;48891;49.220;6.920;2022-12-18T07:28:25;11.68;;;6.93;;
62832;SDS011;48891;49.220;6.920;2022-12-18T07:30:50;13.20;;;7.68;;
62832;SDS011;48891;49.220;6.920;2022-12-18T07:33:15;12.10;;;7.10;;
62832;SDS011;48891;49.220;6.920;2022-12-18T07:35:40;13.60;;;8.25;;
62832;SDS011;48891;49.220;6.920;2022-12-18T07:38:05;12.85;;;7.85;;
62832;SDS011;48891;49.220;6.920;2022-12-18T07:40:30;11.75;;;7.72;;
62832;SDS011;48891;49.220;6.920;2022-12-18T07:42:55;13.02;;;7.90;;
62832;SDS011;48891;49.220;6.920;2022-12-18T07:45:21;13.00;;;7.55;;
62832;SDS011;48891;49.220;6.920;2022-12-18T07:47:46;13.55;;;8.00;;
62832;SDS011;48891;49.220;6.920;2022-12-18T07:50:11;13.65;;;7.40;;
62832;SDS011;48891;49.220;6.920;2022-12-18T07:52:36;14.25;;;8.93;;
62832;SDS011;48891;49.220;6.920;2022-12-18T07:55:01;13.77;;;7.45;;
62832;SDS011;48891;49.220;6.920;2022-12-18T07:57:27;13.23;;;7.53;;
62832;SDS011;48891;49.220;6.920;2022-12-18T07:59:52;14.90;;;8.30;;
62832;SDS011;48891;49.220;6.920;2022-12-18T08:02:17;12.80;;;7.95;;
62832;SDS011;48891;49.220;6.920;2022-12-18T08:04:42;14.05;;;8.00;;
62832;SDS011;48891;49.220;6.920;2022-12-18T08:07:07;12.82;;;8.00;;
62832;SDS011;48891;49.220;6.920;2022-12-18T08:09:32;13.50;;;8.13;;
62832;SDS011;48891;49.220;6.920;2022-12-18T08:11:57;13.90;;;8.65;;
62832;SDS011;48891;49.220;6.920;2022-12-18T08:14:22;14.40;;;9.13;;
62832;SDS011;48891;49.220;6.920;2022-12-18T08:16:48;16.27;;;9.02;;
62832;SDS011;48891;49.220;6.920;2022-12-18T08:19:13;15.32;;;8.65;;
62832;SDS011;48891;49.220;6.920;2022-12-18T08:21:38;13.75;;;8.52;;
62832;SDS011;48891;49.220;6.920;2022-12-18T08:24:03;15.88;;;9.00;;
62832;SDS011;48891;49.220;6.920;2022-12-18T08:26:29;14.52;;;8.48;;
62832;SDS011;48891;49.220;6.920;2022-12-18T08:28:55;13.20;;;8.50;;
62832;SDS011;48891;49.220;6.920;2022-12-18T08:31:20;15.80;;;8.27;;
62832;SDS011;48891;49.220;6.920;2022-12-18T08:33:47;14.95;;;9.35;;
62832;SDS011;48891;49.220;6.920;2022-12-18T08:36:12;14.80;;;8.20;;
62832;SDS011;48891;49.220;6.920;2022-12-18T08:38:37;13.75;;;8.20;;
62832;SDS011;48891;49.220;6.920;2022-12-18T08:41:04;14.73;;;8.60;;
62832;SDS011;48891;49.220;6.920;2022-12-18T08:43:29;16.00;;;8.88;;
62832;SDS011;48891;49.220;6.920;2022-12-18T08:45:55;14.77;;;9.00;;
62832;SDS011;48891;49.220;6.920;2022-12-18T08:48:20;13.23;;;8.73;;
62832;SDS011;48891;49.220;6.920;2022-12-18T08:50:55;13.68;;;8.55;;
62832;SDS011;48891;49.220;6.920;2022-12-18T08:53:20;14.05;;;8.57;;
62832;SDS011;48891;49.220;6.920;2022-12-18T08:55:45;13.15;;;8.40;;
62832;SDS011;48891;49.220;6.920;2022-12-18T08:58:10;13.85;;;8.55;;
62832;SDS011;48891;49.220;6.920;2022-12-18T09:00:35;15.63;;;8.95;;
62832;SDS011;48891;49.220;6.920;2022-12-18T09:03:01;14.13;;;8.75;;
62832;SDS011;48891;49.220;6.920;2022-12-18T09:05:26;16.08;;;8.88;;
62832;SDS011;48891;49.220;6.920;2022-12-18T09:07:51;13.50;;;7.85;;
62832;SDS011;48891;49.220;6.920;2022-12-18T09:10:16;15.27;;;9.30;;
62832;SDS011;48891;49.220;6.920;2022-12-18T09:12:41;15.20;;;9.10;;
62832;SDS011;48891;49.220;6.920;2022-12-18T09:15:06;14.32;;;8.48;;
62832;SDS011;48891;49.220;6.920;2022-12-18T09:17:31;14.80;;;8.85;;
62832;SDS011;48891;49.220;6.920;2022-12-18T09:19:56;11.82;;;7.88;;
62832;SDS011;48891;49.220;6.920;2022-12-18T09:22:22;14.35;;;8.68;;
62832;SDS011;48891;49.220;6.920;2022-12-18T09:24:48;15.13;;;9.18;;
62832;SDS011;48891;49.220;6.920;2022-12-18T09:27:13;13.82;;;8.90;;
62832;SDS011;48891;49.220;6.920;2022-12-18T09:29:38;14.25;;;8.48;;
62832;SDS011;48891;49.220;6.920;2022-12-18T09:32:03;15.63;;;8.73;;
62832;SDS011;48891;49.220;6.920;2022-12-18T09:34:29;15.32;;;8.52;;
62832;SDS011;48891;49.220;6.920;2022-12-18T09:36:54;15.93;;;9.10;;
62832;SDS011;48891;49.220;6.920;2022-12-18T09:39:19;15.68;;;9.18;;
62832;SDS011;48891;49.220;6.920;2022-12-18T09:46:35;14.52;;;8.48;;
62832;SDS011;48891;49.220;6.920;2022-12-18T09:49:04;13.27;;;8.48;;
62832;SDS011;48891;49.220;6.920;2022-12-18T09:51:38;13.98;;;8.40;;
62832;SDS011;48891;49.220;6.920;2022-12-18T09:54:12;15.15;;;8.90;;
62832;SDS011;48891;49.220;6.920;2022-12-18T09:56:40;16.27;;;9.30;;
62832;SDS011;48891;49.220;6.920;2022-12-18T09:59:08;16.57;;;9.13;;
62832;SDS011;48891;49.220;6.920;2022-12-18T10:01:40;15.82;;;8.82;;
62832;SDS011;48891;49.220;6.920;2022-12-18T10:04:05;16.57;;;8.13;;
62832;SDS011;48891;49.220;6.920;2022-12-18T10:07:34;14.65;;;8.73;;
62832;SDS011;48891;49.220;6.920;2022-12-18T10:12:02;17.23;;;9.30;;
62832;SDS011;48891;49.220;6.920;2022-12-18T10:24:55;18.27;;;9.38;;
62832;SDS011;48891;49.220;6.920;2022-12-18T10:27:25;15.95;;;8.77;;
62832;SDS011;48891;49.220;6.920;2022-12-18T10:29:51;12.52;;;8.50;;
62832;SDS011;48891;49.220;6.920;2022-12-18T10:32:17;14.38;;;8.30;;
62832;SDS011;48891;49.220;6.920;2022-12-18T10:34:47;13.43;;;8.50;;
62832;SDS011;48891;49.220;6.920;2022-12-18T10:37:22;19.17;;;9.52;;
62832;SDS011;48891;49.220;6.920;2022-12-18T10:42:31;16.80;;;8.85;;
62832;SDS011;48891;49.220;6.920;2022-12-18T10:45:10;17.50;;;8.93;;
62832;SDS011;48891;49.220;6.920;2022-12-18T10:47:36;14.43;;;8.35;;
62832;SDS011;48891;49.220;6.920;2022-12-18T10:50:11;16.02;;;8.90;;
62832;SDS011;48891;49.220;6.920;2022-12-18T10:52:43;15.57;;;9.52;;
62832;SDS011;48891;49.220;6.920;2022-12-18T10:55:13;15.65;;;8.93;;
62832;SDS011;48891;49.220;6.920;2022-12-18T10:57:40;14.88;;;9.48;;
62832;SDS011;48891;49.220;6.920;2022-12-18T11:02:47;14.98;;;8.63;;
62832;SDS011;48891;49.220;6.920;2022-12-18T11:07:52;15.13;;;8.82;;
62832;SDS011;48891;49.220;6.920;2022-12-18T11:10:18;15.05;;;8.65;;
62832;SDS011;48891;49.220;6.920;2022-12-18T11:12:44;15.18;;;9.13;;
62832;SDS011;48891;49.220;6.920;2022-12-18T11:15:16;14.23;;;8.73;;
62832;SDS011;48891;49.220;6.920;2022-12-18T11:17:43;15.57;;;8.23;;
62832;SDS011;48891;49.220;6.920;2022-12-18T11:20:23;14.33;;;9.03;;
62832;SDS011;48891;49.220;6.920;2022-12-18T11:25:50;16.90;;;8.88;;
62832;SDS011;48891;49.220;6.920;2022-12-18T11:33:33;17.15;;;9.63;;
62832;SDS011;48891;49.220;6.920;2022-12-18T11:35:59;15.68;;;9.38;;
62832;SDS011;48891;49.220;6.920;2022-12-18T11:38:30;16.23;;;9.02;;
62832;SDS011;48891;49.220;6.920;2022-12-18T11:41:01;18.40;;;9.63;;
62832;SDS011;48891;49.220;6.920;2022-12-18T11:43:28;15.82;;;9.32;;
62832;SDS011;48891;49.220;6.920;2022-12-18T11:46:14;14.55;;;8.70;;
62832;SDS011;48891;49.220;6.920;2022-12-18T11:48:48;13.70;;;8.43;;
62832;SDS011;48891;49.220;6.920;2022-12-18T11:51:15;12.90;;;8.70;;
62832;SDS011;48891;49.220;6.920;2022-12-18T11:53:45;14.75;;;8.65;;
62832;SDS011;48891;49.220;6.920;2022-12-18T11:56:25;14.43;;;8.77;;
62832;SDS011;48891;49.220;6.920;2022-12-18T11:58:54;15.52;;;9.07;;
62832;SDS011;48891;49.220;6.920;2022-12-18T12:01:28;15.57;;;9.68;;
62832;SDS011;48891;49.220;6.920;2022-12-18T12:09:15;14.73;;;9.15;;
62832;SDS011;48891;49.220;6.920;2022-12-18T12:21:46;14.85;;;8.63;;
62832;SDS011;48891;49.220;6.920;2022-12-18T12:26:43;15.60;;;8.85;;
62832;SDS011;48891;49.220;6.920;2022-12-18T12:29:13;16.58;;;9.65;;
62832;SDS011;48891;49.220;6.920;2022-12-18T12:39:15;14.70;;;8.87;;
62832;SDS011;48891;49.220;6.920;2022-12-18T12:41:42;17.27;;;8.73;;
62832;SDS011;48891;49.220;6.920;2022-12-18T12:44:13;15.65;;;9.20;;
62832;SDS011;48891;49.220;6.920;2022-12-18T12:46:39;15.27;;;9.30;;
62832;SDS011;48891;49.220;6.920;2022-12-18T12:49:16;15.40;;;9.45;;
62832;SDS011;48891;49.220;6.920;2022-12-18T12:51:43;14.40;;;9.25;;
62832;SDS011;48891;49.220;6.920;2022-12-18T12:54:19;14.82;;;8.90;;
62832;SDS011;48891;49.220;6.920;2022-12-18T12:56:55;16.65;;;9.55;;
62832;SDS011;48891;49.220;6.920;2022-12-18T12:59:27;15.38;;;8.82;;
62832;SDS011;48891;49.220;6.920;2022-12-18T13:04:38;13.52;;;8.68;;
62832;SDS011;48891;49.220;6.920;2022-12-18T13:07:06;17.70;;;9.43;;
62832;SDS011;48891;49.220;6.920;2022-12-18T13:09:36;15.77;;;9.95;;
62832;SDS011;48891;49.220;6.920;2022-12-18T13:12:20;14.73;;;8.68;;
62832;SDS011;48891;49.220;6.920;2022-12-18T13:14:45;15.00;;;9.23;;
62832;SDS011;48891;49.220;6.920;2022-12-18T13:19:48;14.38;;;8.60;;
62832;SDS011;48891;49.220;6.920;2022-12-18T13:22:28;14.63;;;9.45;;
62832;SDS011;48891;49.220;6.920;2022-12-18T13:24:55;15.63;;;8.85;;
62832;SDS011;48891;49.220;6.920;2022-12-18T13:30:16;13.77;;;8.77;;
62832;SDS011;48891;49.220;6.920;2022-12-18T13:32:52;13.63;;;8.43;;
62832;SDS011;48891;49.220;6.920;2022-12-18T13:35:38;14.82;;;8.90;;
62832;SDS011;48891;49.220;6.920;2022-12-18T13:38:18;15.90;;;9.27;;
62832;SDS011;48891;49.220;6.920;2022-12-18T13:45:44;13.98;;;9.35;;
62832;SDS011;48891;49.220;6.920;2022-12-18T13:48:21;13.23;;;8.70;;
62832;SDS011;48891;49.220;6.920;2022-12-18T13:50:52;12.77;;;7.93;;
62832;SDS011;48891;49.220;6.920;2022-12-18T13:53:21;18.77;;;9.50;;
62832;SDS011;48891;49.220;6.920;2022-12-18T13:55:48;13.82;;;8.30;;
62832;SDS011;48891;49.220;6.920;2022-12-18T13:58:14;15.45;;;9.02;;
62832;SDS011;48891;49.220;6.920;2022-12-18T14:00:42;16.15;;;9.52;;
62832;SDS011;48891;49.220;6.920;2022-12-18T14:03:18;16.08;;;8.80;;
62832;SDS011;48891;49.220;6.920;2022-12-18T14:05:44;15.27;;;9.52;;
62832;SDS011;48891;49.220;6.920;2022-12-18T14:08:12;16.73;;;9.25;;
62832;SDS011;48891;49.220;6.920;2022-12-18T14:10:42;13.57;;;9.10;;
62832;SDS011;48891;49.220;6.920;2022-12-18T14:13:08;16.30;;;9.20;;
62832;SDS011;48891;49.220;6.920;2022-12-18T14:15:35;15.48;;;9.30;;
62832;SDS011;48891;49.220;6.920;2022-12-18T14:18:02;14.80;;;9.00;;
62832;SDS011;48891;49.220;6.920;2022-12-18T14:20:30;13.45;;;8.15;;
62832;SDS011;48891;49.220;6.920;2022-12-18T14:22:56;14.38;;;9.07;;
62832;SDS011;48891;49.220;6.920;2022-12-18T14:25:22;15.57;;;8.90;;
62832;SDS011;48891;49.220;6.920;2022-12-18T14:30:32;13.98;;;8.73;;
62832;SDS011;48891;49.220;6.920;2022-12-18T14:33:09;14.48;;;8.93;;
62832;SDS011;48891;49.220;6.920;2022-12-18T14:35:36;13.95;;;8.70;;
62832;SDS011;48891;49.220;6.920;2022-12-18T14:40:46;16.02;;;9.23;;
62832;SDS011;48891;49.220;6.920;2022-12-18T14:43:11;15.30;;;9.20;;
62832;SDS011;48891;49.220;6.920;2022-12-18T14:45:37;13.43;;;7.97;;
62832;SDS011;48891;49.220;6.920;2022-12-18T14:48:06;14.80;;;9.15;;
62832;SDS011;48891;49.220;6.920;2022-12-18T14:50:31;13.20;;;8.80;;
62832;SDS011;48891;49.220;6.920;2022-12-18T14:52:56;14.47;;;8.73;;
62832;SDS011;48891;49.220;6.920;2022-12-18T14:55:21;14.23;;;8.80;;
62832;SDS011;48891;49.220;6.920;2022-12-18T14:57:49;15.27;;;9.65;;
62832;SDS011;48891;49.220;6.920;2022-12-18T15:02:40;15.45;;;8.93;;
62832;SDS011;48891;49.220;6.920;2022-12-18T15:05:16;12.82;;;8.05;;
62832;SDS011;48891;49.220;6.920;2022-12-18T15:07:42;15.57;;;8.73;;
62832;SDS011;48891;49.220;6.920;2022-12-18T15:10:18;13.15;;;7.80;;
62832;SDS011;48891;49.220;6.920;2022-12-18T15:12:44;15.25;;;9.30;;
62832;SDS011;48891;49.220;6.920;2022-12-18T15:18:11;15.10;;;9.35;;
62832;SDS011;48891;49.220;6.920;2022-12-18T15:25:39;13.33;;;8.60;;
62832;SDS011;48891;49.220;6.920;2022-12-18T15:28:14;14.88;;;8.93;;
62832;SDS011;48891;49.220;6.920;2022-12-18T15:30:40;12.93;;;8.27;;
62832;SDS011;48891;49.220;6.920;2022-12-18T15:33:23;14.90;;;8.27;;
62832;SDS011;48891;49.220;6.920;2022-12-18T15:35:55;15.90;;;9.13;;
62832;SDS011;48891;49.220;6.920;2022-12-18T15:38:20;16.23;;;8.70;;
62832;SDS011;48891;49.220;6.920;2022-12-18T15:40:45;14.35;;;8.95;;
62832;SDS011;48891;49.220;6.920;2022-12-18T15:43:11;15.05;;;8.70;;
62832;SDS011;48891;49.220;6.920;2022-12-18T15:45:36;14.85;;;9.13;;
62832;SDS011;48891;49.220;6.920;2022-12-18T15:48:01;15.00;;;9.23;;
62832;SDS011;48891;49.220;6.920;2022-12-18T15:50:26;16.05;;;8.93;;
62832;SDS011;48891;49.220;6.920;2022-12-18T15:52:52;13.63;;;8.40;;
62832;SDS011;48891;49.220;6.920;2022-12-18T15:55:21;15.48;;;9.35;;
62832;SDS011;48891;49.220;6.920;2022-12-18T15:57:47;14.85;;;8.48;;
62832;SDS011;48891;49.220;6.920;2022-12-18T16:00:12;15.63;;;8.85;;
62832;SDS011;48891;49.220;6.920;2022-12-18T16:02:37;14.85;;;9.52;;
62832;SDS011;48891;49.220;6.920;2022-12-18T16:05:02;14.20;;;9.23;;
62832;SDS011;48891;49.220;6.920;2022-12-18T16:07:28;12.60;;;8.65;;
62832;SDS011;48891;49.220;6.920;2022-12-18T16:09:53;11.77;;;7.40;;
62832;SDS011;48891;49.220;6.920;2022-12-18T16:12:19;13.65;;;8.40;;
62832;SDS011;48891;49.220;6.920;2022-12-18T16:14:45;15.70;;;9.05;;
62832;SDS011;48891;49.220;6.920;2022-12-18T16:17:11;17.33;;;9.33;;
62832;SDS011;48891;49.220;6.920;2022-12-18T16:19:36;16.05;;;9.15;;
62832;SDS011;48891;49.220;6.920;2022-12-18T16:22:01;13.68;;;8.68;;
62832;SDS011;48891;49.220;6.920;2022-12-18T16:24:27;14.77;;;8.98;;
62832;SDS011;48891;49.220;6.920;2022-12-18T16:26:53;15.18;;;9.05;;